Hauptseite
METAR-TAF:

METAR-TAF

Flughäfen :

Flughafen Rijeka

Rijeka, Kroatien

Breite: 45-13N, Länge: 014-35E, Höhe: 85 m

Beobachtung

Neuester Wetterbericht von vor 32 Minuten, um 18:30 UTC
Wind 4 kt aus West
Temperatur 15°C
Luftfeuchtigkeit 59%
Luftdruck 1017 hPa
Sichtweite 10 km oder mehr
keine Wolken unter 1500 m und keine Kumulonimbus oder Gewitterwolken

METAR: LDRI 231830Z 28004KT CAVOK 15/07 Q1017

Zeit: 21:02 (19:02 UTC)

Prognose

Neuester Wetterbericht von vor 1 Stunde und 37 Minuten, um 17:25 UTC
Gültige Prognose vom 23 um 18 UTC bis 24 um 18 UTC
Wind 2 kt aus unterschiedlichen Richtungen
Sichtweite 10 km oder mehr
keine Wolken unter 1500 m und keine Kumulonimbus oder Gewitterwolken
Zeitweise
vom 24 um 11 UTC bis 24 um 16 UTC
Wind 6 kt aus Nordwest

TAF: LDRI 231725Z 2318/2418 VRB02KT CAVOK TX21/2413Z TN14/2321Z TEMPO 2411/2416 32006KT

Wetterbeobachtungen und Prognosen von mehr als 4000 Flughäfen (METAR und TAF Bericht).

Die verfügbaren Stationen werden durch gelbe und rote Markierungen auf der Karte dargestellt.

Führen Sie die Maus auf sie, um den Namen der Station zu sehen.

Darauf klicken, um die Beobachtung von Wetterbeobachtungen und Prognosen zu sehen.

Um die Karte zu ändern : klicken Sie auf den grünen Tasten mit einem schwarzen Kreuz Zum Vergrößern, auf den grünen Button mit einem Gedankenstrich zu verkleinern, oder auf die grünen Pfeile für benachbarte Karten.


METAR-TAF: